Time;durP1;ratioP1;P1;durP2;ratioP2;P2;SDS_P1;SDS_P2;PMS_P1;PMS_P2;Temp;Humidity;BMP_temperature;BMP_pressure;BME280_temperature;BME280_humidity;BME280_pressure;Samples;Min_cycle;Max_cycle;Signal;HPM_P1;HPM_P2
2023/02/18 00:02:32;;;;;;;52.63;27.20;;;;;;;5.25;60.06;100384.88;122975;1105;104240;-76
2023/02/18 00:05:03;;;;;;;50.10;26.67;;;;;;;5.26;59.67;100377.16;122975;1105;104373;-76
2023/02/18 00:07:37;;;;;;;54.77;29.17;;;;;;;5.26;59.54;100364.16;122878;1105;105863;-76
2023/02/18 00:10:13;;;;;;;61.95;32.20;;;;;;;5.26;60.16;100374.56;122894;1105;104242;-76
2023/02/18 00:12:44;;;;;;;70.57;34.77;;;;;;;5.17;59.67;100369.77;123019;1105;104360;-76
2023/02/18 00:15:16;;;;;;;75.50;38.83;;;;;;;5.11;59.56;100366.83;122946;1105;104379;-75
2023/02/18 00:17:47;;;;;;;82.83;40.67;;;;;;;5.04;59.56;100362.08;122887;1105;104351;-76
2023/02/18 00:20:18;;;;;;;83.17;42.40;;;;;;;5.00;60.22;100361.03;122950;1105;104323;-76
2023/02/18 00:22:50;;;;;;;90.47;44.47;;;;;;;4.95;60.26;100361.57;122961;1105;104302;-76
2023/02/18 00:25:21;;;;;;;82.67;41.23;;;;;;;4.84;60.16;100355.77;122943;1105;104265;-76
2023/02/18 00:27:53;;;;;;;80.30;40.73;;;;;;;4.76;60.41;100347.53;122974;1105;104313;-76
2023/02/18 00:30:24;;;;;;;82.00;41.00;;;;;;;4.70;60.27;100347.19;122936;1105;104351;-77
2023/02/18 00:32:56;;;;;;;77.17;39.77;;;;;;;4.67;60.56;100345.33;122891;1106;104344;-77
2023/02/18 00:35:27;;;;;;;80.53;40.67;;;;;;;4.67;61.16;100354.81;122868;1106;104296;-77
2023/02/18 00:37:58;;;;;;;78.53;39.33;;;;;;;4.65;60.66;100357.32;122867;1106;104217;-77
2023/02/18 00:40:29;;;;;;;75.37;38.27;;;;;;;4.63;61.27;100347.66;122946;1105;104376;-77
2023/02/18 00:43:00;;;;;;;71.65;36.90;;;;;;;4.61;61.05;100359.66;123014;1105;104376;-77
2023/02/18 00:45:32;;;;;;;73.83;37.30;;;;;;;4.62;61.32;100351.06;122938;1106;104373;-76
2023/02/18 00:48:23;;;;;;;72.50;38.10;;;;;;;4.61;61.18;100354.45;123023;1105;104270;-76
2023/02/18 00:50:54;;;;;;;66.97;35.93;;;;;;;4.59;61.30;100348.28;122970;1105;104287;-77
2023/02/18 00:53:27;;;;;;;71.70;37.07;;;;;;;4.60;61.46;100337.98;123014;1105;104367;-77
2023/02/18 00:55:59;;;;;;;68.00;34.87;;;;;;;4.63;60.88;100332.07;122975;1105;105778;-77
2023/02/18 00:58:30;;;;;;;64.73;34.27;;;;;;;4.64;61.92;100326.95;123125;1105;104289;-77
2023/02/18 01:01:04;;;;;;;65.40;32.63;;;;;;;4.66;60.97;100327.93;123008;1105;104256;-77
2023/02/18 01:03:36;;;;;;;62.50;33.60;;;;;;;4.69;61.38;100322.02;123153;1105;104265;-77
2023/02/18 01:06:09;;;;;;;63.90;33.17;;;;;;;4.68;61.84;100315.91;123140;1105;104328;-77
2023/02/18 01:08:42;;;;;;;66.90;33.23;;;;;;;4.71;61.44;100316.91;123101;1105;104264;-77
2023/02/18 01:11:13;;;;;;;62.27;31.27;;;;;;;4.72;62.04;100314.39;123072;1105;104248;-77
2023/02/18 01:13:45;;;;;;;60.17;29.33;;;;;;;4.75;62.05;100308.45;123037;1105;104338;-76
2023/02/18 01:16:16;;;;;;;66.03;33.93;;;;;;;4.79;61.61;100305.23;123167;1105;104287;-77
2023/02/18 01:18:47;;;;;;;58.13;30.20;;;;;;;4.82;62.13;100303.68;123168;1105;104392;-77
2023/02/18 01:21:19;;;;;;;61.93;30.90;;;;;;;4.82;62.43;100293.28;123029;1105;104479;-77
2023/02/18 01:23:50;;;;;;;67.40;33.63;;;;;;;4.83;62.40;100295.09;123214;1105;105178;-77
2023/02/18 01:26:22;;;;;;;63.95;32.30;;;;;;;4.88;61.88;100286.62;123017;1105;104294;-77
2023/02/18 01:28:53;;;;;;;65.87;34.83;;;;;;;4.91;62.22;100282.50;122998;1105;104293;-77
2023/02/18 01:31:25;;;;;;;69.73;37.00;;;;;;;4.93;62.49;100272.19;123066;1105;104405;-77
2023/02/18 01:33:56;;;;;;;62.13;33.63;;;;;;;4.94;62.45;100266.16;123145;1105;104377;-77
2023/02/18 01:36:27;;;;;;;69.23;36.17;;;;;;;4.94;63.05;100259.27;123121;1105;105610;-77
2023/02/18 01:39:00;;;;;;;61.90;32.30;;;;;;;4.96;62.56;100257.64;123161;1105;104293;-77
2023/02/18 01:41:32;;;;;;;62.00;32.35;;;;;;;4.97;62.72;100245.52;123137;1105;104217;-76
2023/02/18 01:44:18;;;;;;;65.13;35.67;;;;;;;4.96;63.47;100244.64;123174;1105;104674;-77
2023/02/18 01:46:50;;;;;;;57.13;32.40;;;;;;;4.92;63.61;100242.67;123379;1105;105605;-76
2023/02/18 01:49:27;;;;;;;63.80;33.80;;;;;;;4.90;63.57;100236.50;123184;1105;104290;-77
2023/02/18 01:52:03;;;;;;;68.63;34.77;;;;;;;4.89;63.45;100242.50;123217;1105;104277;-76
2023/02/18 01:54:38;;;;;;;66.87;34.50;;;;;;;4.91;63.33;100235.70;123152;1105;104248;-76
2023/02/18 01:57:13;;;;;;;62.67;32.77;;;;;;;4.90;64.20;100225.22;123224;1105;104300;-76
2023/02/18 01:59:49;;;;;;;66.23;33.93;;;;;;;4.89;63.74;100229.50;123139;1105;104370;-76
2023/02/18 02:02:24;;;;;;;64.93;35.20;;;;;;;4.91;63.93;100234.78;123162;1105;104326;-76
2023/02/18 02:04:56;;;;;;;67.20;34.77;;;;;;;4.90;63.53;100233.91;123161;1105;104309;-76
2023/02/18 02:07:29;;;;;;;67.43;35.07;;;;;;;4.89;64.06;100224.30;123131;1105;104268;-77
2023/02/18 02:10:01;;;;;;;64.32;33.40;;;;;;;4.86;64.29;100224.14;123106;1105;104217;-76
2023/02/18 02:12:54;;;;;;;64.53;34.67;;;;;;;4.82;63.87;100223.09;123153;1105;104374;-76
2023/02/18 02:15:40;;;;;;;66.15;34.05;;;;;;;4.85;63.87;100220.66;123052;1105;104373;-76
2023/02/18 02:18:26;;;;;;;65.37;33.90;;;;;;;4.85;64.54;100224.97;123058;1105;104315;-76
2023/02/18 02:21:39;;;;;;;65.23;33.53;;;;;;;4.88;64.09;100219.94;123172;1105;104195;-76
2023/02/18 02:24:32;;;;;;;63.40;32.70;;;;;;;4.88;63.99;100214.73;123190;1105;104399;-77
2023/02/18 02:27:17;;;;;;;62.70;34.10;;;;;;;4.89;63.94;100211.30;123058;1105;104398;-76
2023/02/18 02:30:11;;;;;;;61.77;33.17;;;;;;;4.91;64.06;100200.98;123115;1105;104288;-76
2023/02/18 02:33:09;;;;;;;63.63;31.77;;;;;;;4.93;64.66;100208.06;123261;1105;104258;-77
2023/02/18 02:35:46;;;;;;;61.23;32.43;;;;;;;4.95;64.58;100205.55;123231;1105;104267;-78
2023/02/18 02:38:24;;;;;;;53.93;29.00;;;;;;;4.97;64.87;100202.23;123209;1105;104333;-77
2023/02/18 02:41:02;;;;;;;52.17;27.53;;;;;;;5.01;64.62;100200.67;123213;1105;104293;-77
2023/02/18 02:43:45;;;;;;;54.33;28.47;;;;;;;5.02;65.48;100198.16;123248;1105;104191;-78
2023/02/18 02:46:23;;;;;;;54.20;28.97;;;;;;;5.05;64.70;100197.44;123232;1105;104284;-77
2023/02/18 02:49:06;;;;;;;57.50;29.45;;;;;;;5.07;65.06;100184.52;123293;1105;104220;-77
2023/02/18 02:51:46;;;;;;;54.70;28.77;;;;;;;5.08;65.02;100181.08;123225;1105;104258;-78
2023/02/18 02:54:21;;;;;;;50.03;27.10;;;;;;;5.08;65.46;100189.80;123346;1105;102070;-78
2023/02/18 02:57:07;;;;;;;54.27;27.33;;;;;;;5.11;65.82;100186.44;123449;1105;104345;-77
2023/02/18 02:59:42;;;;;;;54.37;29.33;;;;;;;5.09;65.75;100183.77;123454;1105;110356;-76
2023/02/18 03:02:28;;;;;;;54.73;29.10;;;;;;;5.08;65.62;100176.80;123443;1105;104348;-78
2023/02/18 03:05:20;;;;;;;48.73;25.90;;;;;;;5.09;65.95;100173.36;123318;1105;104650;-78
2023/02/18 03:08:14;;;;;;;46.97;25.60;;;;;;;5.10;66.07;100182.08;123477;1105;104412;-78
2023/02/18 03:10:58;;;;;;;54.45;28.00;;;;;;;5.09;65.91;100175.95;123269;1105;104329;-78
2023/02/18 03:13:31;;;;;;;;;;;;;;;5.10;66.53;100171.67;123475;1105;104290;-78
2023/02/18 03:16:17;;;;;;;52.30;27.53;;;;;;;5.10;66.54;100169.07;123371;1105;104329;-78
2023/02/18 03:18:55;;;;;;;49.07;26.13;;;;;;;5.09;66.50;100168.16;123384;1105;104402;-78
2023/02/18 03:21:30;;;;;;;55.97;29.10;;;;;;;5.09;66.25;100156.88;123355;1105;104105;-78
2023/02/18 03:24:06;;;;;;;55.50;27.43;;;;;;;5.07;66.25;100154.19;123338;1105;104274;-79
2023/02/18 03:26:42;;;;;;;55.70;28.80;;;;;;;5.07;66.66;100159.39;123458;1105;104279;-78
2023/02/18 03:29:18;;;;;;;53.53;28.87;;;;;;;5.09;66.14;100151.67;123352;1105;104351;-78
2023/02/18 03:31:54;;;;;;;55.60;30.00;;;;;;;5.08;67.04;100144.67;123300;1105;104294;-78
2023/02/18 03:34:29;;;;;;;55.30;29.23;;;;;;;5.07;66.86;100143.78;123317;1105;104230;-78
2023/02/18 03:37:03;;;;;;;53.00;29.20;;;;;;;5.06;67.26;100152.39;123622;1105;104274;-79
2023/02/18 03:39:37;;;;;;;57.58;31.00;;;;;;;5.06;67.43;100148.91;123274;1104;104326;-78
2023/02/18 03:42:08;;;;;;;55.00;29.27;;;;;;;5.07;66.84;100145.50;123315;1105;104278;-78
2023/02/18 03:44:40;;;;;;;61.10;32.33;;;;;;;5.06;67.31;100151.51;123348;1105;104338;-78
2023/02/18 03:47:11;;;;;;;67.40;32.37;;;;;;;5.06;67.55;100151.51;123344;1105;104336;-78
2023/02/18 03:49:42;;;;;;;63.23;34.30;;;;;;;5.03;67.54;100144.43;123371;1105;104223;-79
2023/02/18 03:52:14;;;;;;;62.95;33.95;;;;;;;5.01;67.85;100135.66;123230;1105;104287;-78
2023/02/18 03:54:45;;;;;;;60.03;32.03;;;;;;;4.99;67.74;100135.59;123364;1105;104374;-78
2023/02/18 03:57:16;;;;;;;64.53;34.23;;;;;;;4.97;67.89;100146.70;123249;1105;104197;-78
2023/02/18 03:59:47;;;;;;;66.73;34.83;;;;;;;4.97;67.56;100139.82;123293;1105;104264;-77
2023/02/18 04:02:19;;;;;;;60.20;32.10;;;;;;;4.97;68.26;100128.50;123278;1105;104316;-78
2023/02/18 04:04:50;;;;;;;66.07;35.20;;;;;;;4.96;68.12;100125.02;123272;1105;104268;-78
2023/02/18 04:07:21;;;;;;;66.83;33.23;;;;;;;4.98;68.28;100123.38;123259;1105;104383;-77
2023/02/18 04:09:52;;;;;;;56.60;31.07;;;;;;;5.00;68.60;100123.47;123224;1105;104341;-78
2023/02/18 04:12:23;;;;;;;53.90;29.60;;;;;;;5.01;68.52;100107.06;123239;1105;104261;-78
2023/02/18 04:14:55;;;;;;;52.27;28.23;;;;;;;5.04;68.40;100100.30;123298;1105;104293;-78
2023/02/18 04:17:26;;;;;;;50.97;26.37;;;;;;;5.10;68.46;100101.45;123270;1105;104684;-78
2023/02/18 04:19:58;;;;;;;46.70;25.83;;;;;;;5.11;69.10;100096.33;123217;1105;104248;-78
2023/02/18 04:22:29;;;;;;;48.27;26.10;;;;;;;5.15;69.23;100092.16;123252;1105;104273;-77
2023/02/18 04:25:00;;;;;;;45.90;24.10;;;;;;;5.17;69.23;100087.92;123189;1105;104409;-77
2023/02/18 04:27:31;;;;;;;48.87;25.50;;;;;;;5.21;69.03;100075.15;123115;1105;104293;-78
2023/02/18 04:30:03;;;;;;;44.67;24.50;;;;;;;5.25;69.46;100085.71;123020;1105;104348;-76
2023/02/18 04:32:34;;;;;;;49.10;25.83;;;;;;;5.28;69.14;100085.86;123166;1105;104210;-77
2023/02/18 04:35:06;;;;;;;45.63;24.93;;;;;;;5.30;69.50;100082.53;123147;1105;104447;-77
2023/02/18 04:37:38;;;;;;;47.70;25.40;;;;;;;5.33;69.87;100076.57;123089;1105;104405;-76
2023/02/18 04:40:10;;;;;;;42.93;24.07;;;;;;;5.34;69.92;100071.44;123135;1106;104392;-76
2023/02/18 04:42:42;;;;;;;40.73;23.23;;;;;;;5.38;69.93;100077.72;123269;1105;104277;-77
2023/02/18 04:45:13;;;;;;;41.83;23.93;;;;;;;5.41;69.94;100077.87;123205;1105;104264;-77
2023/02/18 04:47:44;;;;;;;43.23;24.10;;;;;;;5.44;71.24;100070.21;123072;1105;104300;-77
2023/02/18 04:50:16;;;;;;;43.77;23.63;;;;;;;5.48;71.38;100050.42;123074;1105;104457;-76
2023/02/18 04:52:47;;;;;;;42.47;22.87;;;;;;;5.52;70.26;100052.38;123114;1105;104289;-78
2023/02/18 04:55:19;;;;;;;45.13;24.07;;;;;;;5.54;70.49;100027.30;123038;1105;104274;-76
2023/02/18 04:57:50;;;;;;;43.60;23.50;;;;;;;5.56;70.70;100025.66;123013;1105;104246;-76
2023/02/18 05:00:22;;;;;;;41.53;23.00;;;;;;;5.58;70.44;100037.94;123014;1105;104417;-77
2023/02/18 05:02:53;;;;;;;39.67;22.17;;;;;;;5.60;71.07;100027.59;123037;1105;104376;-76
2023/02/18 05:05:24;;;;;;;42.90;23.60;;;;;;;5.62;71.07;100031.16;123106;1105;104305;-76
2023/02/18 05:07:56;;;;;;;41.73;23.33;;;;;;;5.64;71.05;100029.55;123015;1105;104279;-77
2023/02/18 05:10:27;;;;;;;42.83;24.53;;;;;;;5.65;70.57;100049.52;123100;1105;104287;-77
2023/02/18 05:12:58;;;;;;;45.10;24.60;;;;;;;5.67;70.51;100039.19;123227;1105;104351;-76
2023/02/18 05:15:29;;;;;;;42.27;23.80;;;;;;;5.68;70.68;100046.19;123207;1105;104271;-76
2023/02/18 05:18:01;;;;;;;39.27;22.03;;;;;;;5.69;71.05;100053.19;123197;1105;104370;-76
2023/02/18 05:20:32;;;;;;;43.23;22.77;;;;;;;5.70;70.91;100045.45;123182;1105;104241;-77
2023/02/18 05:23:03;;;;;;;42.07;22.70;;;;;;;5.75;71.43;100054.37;123215;1105;104293;-77
2023/02/18 05:25:35;;;;;;;40.10;23.00;;;;;;;5.77;71.06;100046.63;123299;1104;104261;-77
2023/02/18 05:28:06;;;;;;;41.03;22.00;;;;;;;5.82;71.12;100050.33;123187;1105;104326;-77
2023/02/18 05:30:37;;;;;;;38.83;21.90;;;;;;;5.86;70.89;100039.25;123202;1105;104274;-76
2023/02/18 05:33:09;;;;;;;42.50;23.77;;;;;;;5.90;71.17;100043.77;123193;1105;104299;-77
2023/02/18 05:35:41;;;;;;;41.33;22.20;;;;;;;5.94;71.35;100037.02;123113;1105;104377;-77
2023/02/18 05:38:12;;;;;;;44.20;23.00;;;;;;;5.98;71.04;100027.66;122980;1105;104795;-76
2023/02/18 05:40:43;;;;;;;38.93;21.70;;;;;;;5.99;71.22;100021.64;122954;1105;104264;-76
2023/02/18 05:43:15;;;;;;;38.50;21.50;;;;;;;6.02;71.65;100026.98;123109;1105;104310;-76
2023/02/18 05:45:46;;;;;;;38.20;20.10;;;;;;;6.06;71.36;100023.68;123181;1106;104243;-76
2023/02/18 05:48:17;;;;;;;38.33;20.70;;;;;;;6.10;71.16;100025.62;123096;1105;104242;-76
2023/02/18 05:50:52;;;;;;;38.17;20.47;;;;;;;6.14;71.47;100013.61;122930;1105;104486;-76
2023/02/18 05:53:24;;;;;;;42.40;22.80;;;;;;;6.18;71.46;99998.19;122932;1105;107210;-76
2023/02/18 05:55:55;;;;;;;40.07;21.67;;;;;;;6.24;71.59;100013.22;122936;1105;104267;-76
2023/02/18 05:58:26;;;;;;;37.33;19.83;;;;;;;6.27;71.78;100002.94;123079;1105;104633;-76
2023/02/18 06:00:57;;;;;;;35.47;20.53;;;;;;;6.31;71.52;99999.66;122976;1105;104242;-77
2023/02/18 06:03:28;;;;;;;38.13;20.57;;;;;;;6.34;71.95;100015.40;122945;1105;118241;-75
2023/02/18 06:06:00;;;;;;;39.03;20.40;;;;;;;6.38;71.90;100011.23;123046;1105;104374;-76
2023/02/18 06:08:31;;;;;;;34.53;19.40;;;;;;;6.40;71.84;100015.67;123019;1105;104329;-76
2023/02/18 06:11:02;;;;;;;38.57;21.03;;;;;;;6.44;71.46;100017.61;123214;1105;104246;-76
2023/02/18 06:13:34;;;;;;;39.87;21.83;;;;;;;6.45;72.15;100014.19;123178;1105;104203;-76
2023/02/18 06:16:06;;;;;;;36.65;20.70;;;;;;;6.47;71.76;100009.05;123082;1105;104306;-76
2023/02/18 06:18:37;;;;;;;40.53;21.80;;;;;;;6.52;72.23;100014.46;123072;1105;104390;-76
2023/02/18 06:21:08;;;;;;;35.53;20.43;;;;;;;6.55;72.24;100012.87;123011;1105;104852;-76
2023/02/18 06:23:39;;;;;;;34.40;20.00;;;;;;;6.62;72.24;100006.20;123004;1105;104347;-76
2023/02/18 06:26:11;;;;;;;34.60;19.40;;;;;;;6.68;72.05;100001.25;123065;1105;104290;-76
2023/02/18 06:28:42;;;;;;;36.70;19.53;;;;;;;6.74;72.52;100000.64;123013;1105;102192;-75
2023/02/18 06:31:13;;;;;;;35.33;19.20;;;;;;;6.80;72.44;100007.00;122866;1105;104364;-76
2023/02/18 06:33:44;;;;;;;32.57;18.87;;;;;;;6.88;72.34;100004.72;122999;1105;104379;-75
2023/02/18 06:36:16;;;;;;;35.90;19.95;;;;;;;6.94;72.07;99994.55;122958;1105;104261;-75
2023/02/18 06:38:47;;;;;;;32.27;18.40;;;;;;;7.02;72.54;99995.75;123148;1104;104284;-75
2023/02/18 06:41:18;;;;;;;32.30;18.70;;;;;;;7.11;72.47;99992.64;123094;1105;104518;-75
2023/02/18 06:43:50;;;;;;;33.37;17.93;;;;;;;7.18;72.11;99999.91;122953;1105;104354;-76
2023/02/18 06:46:21;;;;;;;37.40;19.47;;;;;;;7.28;72.54;99995.07;122833;1106;104287;-77
2023/02/18 06:48:52;;;;;;;32.07;17.57;;;;;;;7.34;72.52;99984.88;123033;1105;104290;-76
2023/02/18 06:51:24;;;;;;;32.40;18.00;;;;;;;7.41;72.76;99992.11;123016;1105;104306;-76
2023/02/18 06:53:55;;;;;;;33.40;17.37;;;;;;;7.51;72.69;99990.74;122937;1105;104393;-77
2023/02/18 06:56:27;;;;;;;30.30;16.75;;;;;;;7.59;72.23;99980.60;122947;1105;104316;-77
2023/02/18 06:58:58;;;;;;;31.63;16.83;;;;;;;7.66;72.91;99987.86;122993;1105;104293;-76
2023/02/18 07:01:29;;;;;;;30.30;17.07;;;;;;;7.72;72.72;99973.31;122827;1105;104370;-76
2023/02/18 07:04:00;;;;;;;29.55;16.10;;;;;;;7.80;72.37;99980.56;123061;1105;104223;-76
2023/02/18 07:06:31;;;;;;;29.13;16.43;;;;;;;7.87;72.72;99987.81;122958;1105;104381;-76
2023/02/18 07:09:03;;;;;;;32.60;17.20;;;;;;;7.92;72.64;99979.30;122848;1105;104350;-76
2023/02/18 07:11:34;;;;;;;29.03;16.33;;;;;;;8.01;72.73;99980.47;122900;1105;104383;-76
2023/02/18 07:14:05;;;;;;;28.37;15.30;;;;;;;8.08;72.75;99995.56;123067;1105;104242;-76
2023/02/18 07:16:37;;;;;;;28.63;16.67;;;;;;;8.16;72.69;100001.08;122948;1105;104775;-77
2023/02/18 07:19:08;;;;;;;30.30;16.03;;;;;;;8.22;73.02;99991.73;123004;1105;104437;-76
2023/02/18 07:21:39;;;;;;;27.30;15.25;;;;;;;8.31;72.61;99995.54;122973;1105;104523;-76
2023/02/18 07:24:10;;;;;;;27.20;14.73;;;;;;;8.40;72.41;99994.14;122918;1105;104392;-75
2023/02/18 07:26:42;;;;;;;25.57;14.23;;;;;;;8.52;73.12;99995.44;123044;1106;104267;-75
2023/02/18 07:29:13;;;;;;;31.90;15.63;;;;;;;8.62;73.20;99995.83;123078;1105;104377;-75
2023/02/18 07:31:44;;;;;;;26.53;14.37;;;;;;;8.72;72.85;100001.38;122866;1105;104386;-74
2023/02/18 07:34:16;;;;;;;24.90;14.13;;;;;;;8.82;72.42;99998.27;122849;1106;104291;-75
2023/02/18 07:36:47;;;;;;;27.90;14.17;;;;;;;8.88;72.75;99984.48;123011;1105;104287;-76
2023/02/18 07:39:19;;;;;;;25.77;13.47;;;;;;;8.95;72.98;99981.25;122870;1105;104300;-75
2023/02/18 07:41:51;;;;;;;26.73;14.37;;;;;;;9.00;72.28;99972.70;122991;1105;104341;-75
2023/02/18 07:44:22;;;;;;;26.83;14.07;;;;;;;9.04;72.56;99980.65;122982;1105;104229;-74
2023/02/18 07:46:53;;;;;;;26.83;14.30;;;;;;;9.09;72.52;99984.33;123220;1105;104373;-75
2023/02/18 07:49:24;;;;;;;25.47;14.00;;;;;;;9.15;72.62;99976.69;123134;1105;104204;-75
2023/02/18 07:51:55;;;;;;;26.17;14.23;;;;;;;9.21;71.96;99974.27;123063;1104;104395;-74
2023/02/18 07:54:27;;;;;;;25.13;13.40;;;;;;;9.30;71.98;99971.04;122885;1105;104323;-75
2023/02/18 07:56:59;;;;;;;26.87;14.17;;;;;;;9.35;72.42;99972.98;122811;1105;104347;-75
2023/02/18 07:59:30;;;;;;;24.20;13.13;;;;;;;9.45;71.46;99973.27;123002;1106;104399;-75
2023/02/18 08:02:01;;;;;;;26.23;12.93;;;;;;;9.54;71.86;99963.97;122922;1105;104312;-75
2023/02/18 08:04:33;;;;;;;23.27;12.27;;;;;;;9.63;71.73;99960.76;122988;1105;104364;-75
2023/02/18 08:07:05;;;;;;;24.37;12.47;;;;;;;9.73;72.12;99974.14;123037;1105;104214;-76
2023/02/18 08:09:36;;;;;;;24.37;13.00;;;;;;;9.82;71.71;99961.32;122918;1105;104300;-74
2023/02/18 08:12:08;;;;;;;24.07;12.13;;;;;;;9.87;72.04;99967.58;122901;1105;104377;-76
2023/02/18 08:14:41;;;;;;;24.23;12.47;;;;;;;9.93;72.07;99961.64;122917;1105;104251;-75
2023/02/18 08:17:12;;;;;;;23.30;12.57;;;;;;;9.99;71.42;99951.34;122936;1105;104434;-75
2023/02/18 08:19:43;;;;;;;25.93;13.00;;;;;;;10.01;71.59;99941.78;122984;1105;104284;-75
2023/02/18 08:22:15;;;;;;;28.07;13.73;;;;;;;10.00;71.68;99954.01;122896;1105;104290;-74
2023/02/18 08:24:46;;;;;;;24.40;12.93;;;;;;;10.02;71.37;99944.45;122930;1105;104389;-74
2023/02/18 08:27:17;;;;;;;22.23;12.43;;;;;;;10.03;71.76;99935.71;122990;1105;104369;-74
2023/02/18 08:29:48;;;;;;;24.13;12.23;;;;;;;10.10;71.30;99938.52;122950;1105;104258;-75
2023/02/18 08:32:20;;;;;;;24.67;12.17;;;;;;;10.16;71.26;99943.93;122970;1105;104370;-74
2023/02/18 08:34:51;;;;;;;21.43;11.63;;;;;;;10.16;70.72;99931.73;122940;1104;104341;-75
2023/02/18 08:37:26;;;;;;;21.53;11.23;;;;;;;10.22;70.70;99931.91;122971;1105;104546;-74
2023/02/18 08:39:57;;;;;;;22.37;11.30;;;;;;;10.33;70.78;99928.70;123010;1105;104360;-75
2023/02/18 08:42:31;;;;;;;23.13;11.47;;;;;;;10.46;71.00;99928.20;123089;1105;104239;-75
2023/02/18 08:45:02;;;;;;;21.87;11.28;;;;;;;10.58;70.60;99925.91;123024;1106;104319;-75
2023/02/18 08:47:34;;;;;;;22.40;11.53;;;;;;;10.67;70.87;99930.49;123172;1105;104178;-75
2023/02/18 08:50:06;;;;;;;23.95;12.25;;;;;;;10.84;71.13;99930.05;122897;1105;104345;-75
2023/02/18 08:52:37;;;;;;;21.65;11.05;;;;;;;11.00;70.86;99934.85;122996;1105;104200;-75
2023/02/18 08:55:09;;;;;;;22.83;10.83;;;;;;;11.15;70.53;99937.83;122896;1105;104220;-74
2023/02/18 08:57:41;;;;;;;22.77;11.30;;;;;;;11.29;71.02;99940.79;122930;1106;104242;-74
2023/02/18 09:00:15;;;;;;;21.53;11.07;;;;;;;11.42;70.72;99933.20;122899;1105;104396;-74
2023/02/18 09:02:47;;;;;;;20.60;10.27;;;;;;;11.49;70.51;99938.63;122903;1105;104367;-75
2023/02/18 09:05:19;;;;;;;19.85;10.10;;;;;;;11.52;70.33;99924.69;122959;1105;104296;-75
2023/02/18 09:07:50;;;;;;;20.63;10.40;;;;;;;11.61;70.39;99931.87;122955;1105;104367;-75
2023/02/18 09:10:21;;;;;;;19.80;10.00;;;;;;;11.70;70.24;99932.07;123002;1105;104274;-75
2023/02/18 09:12:53;;;;;;;19.87;9.80;;;;;;;11.82;69.85;99941.98;122991;1105;104296;-74
2023/02/18 09:15:24;;;;;;;19.70;9.70;;;;;;;11.93;69.66;99934.36;122952;1105;104395;-75
2023/02/18 09:17:55;;;;;;;22.67;10.97;;;;;;;11.99;69.71;99942.38;122950;1105;104235;-74
2023/02/18 09:20:27;;;;;;;21.73;10.43;;;;;;;12.04;69.54;99954.78;123082;1105;104278;-74
2023/02/18 09:22:59;;;;;;;22.23;10.20;;;;;;;12.04;69.58;99954.78;123030;1104;104376;-74
2023/02/18 09:25:30;;;;;;;22.50;10.93;;;;;;;12.09;69.68;99956.59;122914;1105;104248;-74
2023/02/18 09:28:02;;;;;;;19.37;9.73;;;;;;;12.11;69.56;99953.16;122933;1104;104546;-76
2023/02/18 09:30:33;;;;;;;18.80;9.20;;;;;;;12.07;68.75;99956.56;123005;1105;104367;-75
2023/02/18 09:33:04;;;;;;;18.37;8.53;;;;;;;12.00;68.76;99958.19;123078;1105;104336;-74
2023/02/18 09:35:41;;;;;;;19.00;9.50;;;;;;;11.94;68.53;99947.53;122973;1105;104296;-76
2023/02/18 09:38:14;;;;;;;21.13;10.10;;;;;;;11.91;68.17;99941.30;123025;1105;104382;-75
2023/02/18 09:40:48;;;;;;;24.27;10.05;;;;;;;11.97;68.18;99936.21;123035;1105;104278;-74
2023/02/18 09:43:31;;;;;;;21.35;10.10;;;;;;;12.07;68.21;99938.16;123062;1105;104255;-75
2023/02/18 09:46:05;;;;;;;22.25;9.80;;;;;;;12.04;68.37;99938.09;123051;1105;104240;-74
2023/02/18 09:48:38;;;;;;;21.23;10.60;;;;;;;11.98;67.84;99924.81;123097;1105;104296;-75
2023/02/18 09:51:12;;;;;;;21.00;9.85;;;;;;;11.87;67.77;99928.09;122970;1105;104189;-75
2023/02/18 09:53:43;;;;;;;;;;;;;;;11.82;67.60;99926.21;122935;1105;104331;-74
2023/02/18 09:56:20;;;;;;;19.77;9.37;;;;;;;11.75;67.77;99914.69;123090;1105;104737;-75
2023/02/18 09:58:52;;;;;;;19.53;9.07;;;;;;;11.76;67.47;99931.33;122987;1105;104300;-75
2023/02/18 10:01:28;;;;;;;17.43;8.80;;;;;;;11.78;67.42;99921.73;123031;1105;104214;-75
2023/02/18 10:04:04;;;;;;;18.15;9.00;;;;;;;11.81;67.41;99925.33;122880;1105;104657;-73
2023/02/18 10:06:37;;;;;;;20.30;9.27;;;;;;;11.85;67.12;99921.89;122865;1103;104204;-75
2023/02/18 10:09:19;;;;;;;19.50;8.75;;;;;;;11.83;66.67;99920.98;122981;1105;106065;-76
2023/02/18 10:11:56;;;;;;;20.73;9.27;;;;;;;11.84;66.78;99925.40;122953;1105;104395;-75
2023/02/18 10:14:28;;;;;;;19.40;8.73;;;;;;;11.78;66.52;99911.21;122994;1105;104409;-75
2023/02/18 10:17:00;;;;;;;17.50;8.70;;;;;;;11.82;66.69;99916.57;123027;1105;104261;-74
2023/02/18 10:19:34;;;;;;;20.40;9.75;;;;;;;11.83;66.59;99918.36;122932;1105;104486;-74
2023/02/18 10:22:08;;;;;;;18.90;8.83;;;;;;;11.93;66.57;99919.46;122957;1105;104235;-74
2023/02/18 10:24:44;;;;;;;18.40;9.15;;;;;;;11.97;66.25;99915.17;122981;1105;104370;-74
2023/02/18 10:27:21;;;;;;;20.00;9.90;;;;;;;12.00;65.77;99913.48;122966;1105;104268;-75
2023/02/18 10:29:52;;;;;;;20.60;9.67;;;;;;;12.04;65.51;99917.97;122879;1105;104287;-74
2023/02/18 10:32:27;;;;;;;20.43;9.20;;;;;;;12.10;65.87;99906.66;123005;1105;104406;-76
2023/02/18 10:35:06;;;;;;;17.70;9.13;;;;;;;12.17;66.03;99902.40;123008;1105;104274;-76
2023/02/18 10:37:54;;;;;;;20.33;9.90;;;;;;;12.23;66.11;99906.06;122931;1105;104390;-74
2023/02/18 10:40:29;;;;;;;20.25;9.95;;;;;;;12.27;65.53;99909.63;122918;1106;104383;-74
2023/02/18 10:43:09;;;;;;;22.27;10.40;;;;;;;12.27;65.60;99909.63;122970;1105;104343;-74
2023/02/18 10:45:48;;;;;;;19.63;9.70;;;;;;;12.25;65.37;99900.83;122863;1105;104382;-73
2023/02/18 10:48:37;;;;;;;20.83;9.63;;;;;;;12.25;65.57;99900.83;122853;1106;104377;-74
2023/02/18 10:51:17;;;;;;;19.37;9.43;;;;;;;12.30;65.54;99906.17;122845;1105;104255;-75
2023/02/18 10:53:51;;;;;;;22.43;10.33;;;;;;;12.35;65.47;99902.75;122990;1105;104383;-75
2023/02/18 10:56:37;;;;;;;;;;;;;;;12.42;64.91;99906.41;122810;1105;104252;-74
2023/02/18 10:59:14;;;;;;;21.07;10.17;;;;;;;12.51;65.45;99903.95;122906;1105;104258;-75
2023/02/18 11:01:45;;;;;;;18.67;9.00;;;;;;;12.62;65.28;99900.61;122980;1105;104367;-76
2023/02/18 11:04:20;;;;;;;21.00;9.13;;;;;;;12.72;65.02;99899.92;123045;1105;104261;-74
2023/02/18 11:06:53;;;;;;;22.67;10.50;;;;;;;12.84;65.57;99897.50;122879;1105;104367;-75
2023/02/18 11:09:40;;;;;;;21.20;9.97;;;;;;;12.88;65.06;99890.53;122891;1105;104207;-74
2023/02/18 11:12:18;;;;;;;21.47;9.97;;;;;;;12.97;64.45;99892.44;122896;1105;104367;-75
2023/02/18 11:15:03;;;;;;;20.10;10.07;;;;;;;13.04;64.72;99884.66;122879;1105;104318;-74
2023/02/18 11:17:36;;;;;;;20.33;9.23;;;;;;;13.17;64.36;99879.59;122864;1105;104242;-75
2023/02/18 11:20:29;;;;;;;19.15;9.08;;;;;;;13.26;64.79;99879.70;123031;1105;104367;-75
2023/02/18 11:23:14;;;;;;;20.20;8.90;;;;;;;13.22;64.42;99870.87;123109;1105;104266;-74
2023/02/18 11:26:00;;;;;;;20.10;8.97;;;;;;;13.19;64.70;99891.90;122868;1105;104332;-74
2023/02/18 11:28:40;;;;;;;22.30;8.60;;;;;;;13.19;63.93;99888.39;122876;1105;104258;-74
2023/02/18 11:31:16;;;;;;;17.20;7.80;;;;;;;13.21;64.41;99882.26;122933;1105;104296;-74
2023/02/18 11:33:51;;;;;;;17.97;7.80;;;;;;;13.25;63.48;99873.55;123054;1105;104661;-74
2023/02/18 11:36:27;;;;;;;18.00;7.87;;;;;;;13.26;64.35;99870.06;122948;1105;104373;-74